Time;durP1;ratioP1;P1;durP2;ratioP2;P2;SDS_P1;SDS_P2;PMS_P1;PMS_P2;Temp;Humidity;BMP_temperature;BMP_pressure;BME280_temperature;BME280_humidity;BME280_pressure;Samples;Min_cycle;Max_cycle;Signal;HPM_P1;HPM_P2
2021/09/05 00:02:11;;;;;;;0.40;0.20;;;;;;;14.57;55.16;101138.95;112159;1200;94922;-72
2021/09/05 00:04:38;;;;;;;0.40;0.20;;;;;;;14.58;55.13;101142.33;112029;1199;137486;-72
2021/09/05 00:07:05;;;;;;;0.40;0.20;;;;;;;14.54;55.23;101140.64;112163;1199;94974;-72
2021/09/05 00:09:32;;;;;;;0.40;0.20;;;;;;;14.51;55.44;101144.13;112025;1199;137734;-72
2021/09/05 00:11:58;;;;;;;0.40;0.20;;;;;;;14.52;55.58;101145.17;112221;1199;95385;-71
2021/09/05 00:14:25;;;;;;;0.40;0.20;;;;;;;14.49;55.50;101144.71;112045;1202;109391;-72
2021/09/05 00:16:52;;;;;;;0.40;0.20;;;;;;;14.45;55.53;101142.52;111968;1203;138425;-71
2021/09/05 00:19:19;;;;;;;0.40;0.20;;;;;;;14.44;55.36;101145.04;112138;1208;95385;-72
2021/09/05 00:21:46;;;;;;;0.40;0.20;;;;;;;14.41;55.58;101144.43;112045;1199;137753;-72
2021/09/05 00:24:12;;;;;;;0.40;0.20;;;;;;;14.28;55.72;101150.19;112108;1203;95640;-72
2021/09/05 00:26:39;;;;;;;0.40;0.20;;;;;;;14.22;55.81;101151.25;112124;1203;97097;-72
2021/09/05 00:29:05;;;;;;;0.40;0.20;;;;;;;14.26;55.51;101151.14;112052;1199;137858;-72
2021/09/05 00:31:32;;;;;;;0.40;0.20;;;;;;;14.32;55.55;101149.89;112190;1199;95382;-72
2021/09/05 00:34:01;;;;;;;0.40;0.20;;;;;;;14.34;55.40;101157.67;112012;1206;139486;-72
2021/09/05 00:36:27;;;;;;;0.40;0.20;;;;;;;14.33;55.35;101156.65;112189;1206;94809;-73
2021/09/05 00:38:54;;;;;;;0.40;0.20;;;;;;;14.22;55.82;101159.81;112153;1200;94886;-72
2021/09/05 00:41:21;;;;;;;0.40;0.20;;;;;;;14.15;55.96;101159.65;112027;1206;139449;-72
2021/09/05 00:43:53;;;;;;;0.40;0.20;;;;;;;14.22;55.62;101162.70;112149;1199;94951;-72
2021/09/05 00:46:20;;;;;;;0.40;0.20;;;;;;;14.25;55.42;101166.52;112413;1199;137531;-72
2021/09/05 00:48:47;;;;;;;0.40;0.20;;;;;;;14.25;55.41;101167.23;112193;1206;94941;-72
2021/09/05 00:51:14;;;;;;;0.40;0.20;;;;;;;14.21;55.69;101168.61;112229;1199;94924;-72
2021/09/05 00:53:40;;;;;;;0.40;0.20;;;;;;;14.06;56.13;101170.30;111993;1200;137902;-72
2021/09/05 00:56:07;;;;;;;0.40;0.20;;;;;;;14.04;56.17;101174.44;112211;1200;94840;-72
2021/09/05 00:58:35;;;;;;;0.40;0.30;;;;;;;14.08;56.18;101169.35;112032;1200;138400;-72
2021/09/05 01:01:02;;;;;;;0.40;0.20;;;;;;;14.06;56.25;101170.81;112197;1200;94915;-71
2021/09/05 01:03:29;;;;;;;0.40;0.20;;;;;;;14.02;56.05;101173.42;112122;1200;137696;-72
2021/09/05 01:05:56;;;;;;;0.40;0.20;;;;;;;13.96;56.28;101176.27;111986;1199;114081;-79
2021/09/05 01:08:22;;;;;;;0.40;0.30;;;;;;;13.89;56.42;101173.26;111992;1202;95354;-78
2021/09/05 01:10:49;;;;;;;0.40;0.20;;;;;;;13.95;56.24;101174.52;111993;1199;138423;-78
2021/09/05 01:13:15;;;;;;;0.40;0.20;;;;;;;13.94;56.55;101175.45;112239;1199;94834;-78
2021/09/05 01:15:42;;;;;;;0.40;0.30;;;;;;;13.95;56.43;101179.52;112059;1199;139659;-78
2021/09/05 01:18:09;;;;;;;0.40;0.20;;;;;;;13.91;56.61;101173.02;112153;1199;94830;-78
2021/09/05 01:20:35;;;;;;;0.40;0.20;;;;;;;13.83;56.71;101175.56;112133;1199;94904;-78
2021/09/05 01:23:02;;;;;;;0.40;0.30;;;;;;;13.80;56.63;101175.11;112039;1206;140402;-79
2021/09/05 01:25:29;;;;;;;0.40;0.30;;;;;;;13.80;56.79;101183.33;112229;1200;94857;-78
2021/09/05 01:27:55;;;;;;;0.40;0.20;;;;;;;13.84;56.71;101184.09;112062;1199;138348;-78
2021/09/05 01:30:22;;;;;;;0.40;0.20;;;;;;;13.81;56.62;101190.07;112122;1199;94924;-78
2021/09/05 01:32:48;;;;;;;0.40;0.30;;;;;;;13.72;56.56;101192.63;112121;1199;95358;-78
2021/09/05 01:35:15;;;;;;;0.40;0.20;;;;;;;13.74;56.60;101192.75;111971;1200;138299;-78
2021/09/05 01:37:42;;;;;;;0.40;0.20;;;;;;;13.78;56.66;101193.71;112212;1199;94844;-77
2021/09/05 01:40:09;;;;;;;0.40;0.20;;;;;;;13.78;56.90;101191.94;111984;1199;137179;-78
2021/09/05 01:42:36;;;;;;;0.40;0.20;;;;;;;13.70;56.95;101197.67;112199;1199;108717;-77
2021/09/05 01:45:02;;;;;;;0.40;0.20;;;;;;;13.72;56.80;101198.71;112092;1199;95548;-78
2021/09/05 01:47:30;;;;;;;0.40;0.20;;;;;;;13.68;56.78;101206.67;111980;1206;138946;-79
2021/09/05 01:49:56;;;;;;;0.40;0.20;;;;;;;13.64;57.05;101206.42;112066;1199;94959;-78
2021/09/05 01:52:23;;;;;;;0.40;0.20;;;;;;;13.67;57.12;101209.00;112014;1199;138082;-78
2021/09/05 01:54:49;;;;;;;0.40;0.20;;;;;;;13.69;57.01;101207.88;112203;1200;95350;-78
2021/09/05 01:57:16;;;;;;;0.40;0.20;;;;;;;13.69;56.98;101208.77;112116;1199;109919;-78
2021/09/05 01:59:43;;;;;;;0.40;0.20;;;;;;;13.68;56.79;101212.17;112056;1200;138230;-78
2021/09/05 02:02:09;;;;;;;0.40;0.30;;;;;;;13.66;57.13;101210.98;112131;1199;94948;-78
2021/09/05 02:04:36;;;;;;;0.40;0.20;;;;;;;13.62;57.35;101211.27;112024;1206;138563;-78
2021/09/05 02:07:03;;;;;;;0.40;0.20;;;;;;;13.61;57.14;101212.90;112115;1199;94933;-77
2021/09/05 02:09:29;;;;;;;0.40;0.20;;;;;;;13.60;57.22;101217.75;112011;1206;139808;-80
2021/09/05 02:11:56;;;;;;;0.40;0.30;;;;;;;13.59;57.24;101222.06;112173;1206;95597;-78
2021/09/05 02:14:23;;;;;;;0.40;0.30;;;;;;;13.56;57.60;101223.56;112066;1199;95325;-79
2021/09/05 02:16:49;;;;;;;0.40;0.20;;;;;;;13.53;57.89;101224.70;111977;1199;138657;-79
2021/09/05 02:19:16;;;;;;;0.40;0.20;;;;;;;13.53;57.77;101226.30;112097;1199;94856;-80
2021/09/05 02:21:42;;;;;;;0.40;0.20;;;;;;;13.53;57.50;101228.61;112126;1199;138531;-78
2021/09/05 02:24:09;;;;;;;0.40;0.30;;;;;;;13.53;57.52;101228.98;112096;1206;95565;-78
2021/09/05 02:26:36;;;;;;;0.40;0.30;;;;;;;13.46;57.93;101232.20;112148;1199;95491;-78
2021/09/05 02:29:02;;;;;;;0.40;0.20;;;;;;;13.41;58.37;101232.33;111991;1206;138550;-78
2021/09/05 02:31:29;;;;;;;0.40;0.20;;;;;;;13.39;58.29;101232.54;112127;1206;95302;-79
2021/09/05 02:33:56;;;;;;;0.40;0.20;;;;;;;13.34;58.48;101233.89;112082;1199;139664;-77
2021/09/05 02:36:25;;;;;;;0.40;0.20;;;;;;;13.30;58.50;101230.42;112212;1200;94834;-78
2021/09/05 02:38:51;;;;;;;0.40;0.30;;;;;;;13.31;58.58;101230.74;112067;1206;95564;-78
2021/09/05 02:41:18;;;;;;;0.40;0.20;;;;;;;13.32;58.45;101236.80;111948;1206;139369;-80
2021/09/05 02:43:45;;;;;;;0.40;0.20;;;;;;;13.34;58.28;101235.30;112112;1199;94847;-79
2021/09/05 02:46:11;;;;;;;0.40;0.30;;;;;;;13.33;58.46;101237.64;112042;1199;138700;-79
2021/09/05 02:48:38;;;;;;;0.40;0.20;;;;;;;13.32;58.60;101239.46;112136;1199;94868;-78
2021/09/05 02:51:05;;;;;;;0.40;0.20;;;;;;;13.27;58.83;101239.06;112231;1199;95285;-77
2021/09/05 02:53:31;;;;;;;0.40;0.30;;;;;;;13.31;58.78;101240.92;111997;1200;140646;-77
2021/09/05 02:55:58;;;;;;;0.40;0.20;;;;;;;13.35;58.54;101243.48;112266;1199;95364;-79
2021/09/05 02:58:24;;;;;;;0.40;0.20;;;;;;;13.33;58.66;101243.20;112152;1199;140929;-76
2021/09/05 03:00:52;;;;;;;0.40;0.30;;;;;;;13.28;58.80;101241.69;112253;1200;95679;-77
2021/09/05 03:03:19;;;;;;;0.40;0.20;;;;;;;13.28;58.92;101246.85;112077;1200;94840;-77
2021/09/05 03:05:45;;;;;;;0.40;0.20;;;;;;;13.26;58.94;101253.72;112106;1198;140012;-78
2021/09/05 03:08:12;;;;;;;0.40;0.20;;;;;;;13.22;58.94;101252.37;112170;1199;97168;-78
2021/09/05 03:10:39;;;;;;;0.40;0.20;;;;;;;13.21;58.99;101255.41;112076;1200;138369;-78
2021/09/05 03:13:05;;;;;;;0.40;0.30;;;;;;;13.15;59.01;101255.56;112145;1206;95471;-77
2021/09/05 03:15:32;;;;;;;0.40;0.20;;;;;;;13.16;59.01;101259.29;112020;1206;140901;-78
2021/09/05 03:17:59;;;;;;;0.40;0.20;;;;;;;13.19;58.83;101256.71;112089;1206;95192;-77
2021/09/05 03:20:25;;;;;;;0.40;0.20;;;;;;;13.24;58.63;101257.50;112247;1206;94877;-77
2021/09/05 03:22:52;;;;;;;0.40;0.20;;;;;;;13.19;58.77;101255.47;111994;1200;138091;-78
2021/09/05 03:25:18;;;;;;;0.40;0.40;;;;;;;13.11;59.09;101258.48;112162;1199;95510;-78
2021/09/05 03:27:45;;;;;;;0.40;0.20;;;;;;;13.11;59.17;101260.45;111983;1199;138708;-78
2021/09/05 03:30:12;;;;;;;0.40;0.20;;;;;;;13.13;58.90;101263.80;112149;1206;94844;-77
2021/09/05 03:32:38;;;;;;;0.40;0.20;;;;;;;13.17;58.83;101265.50;112194;1200;94848;-79
2021/09/05 03:35:06;;;;;;;0.40;0.30;;;;;;;13.20;58.54;101267.04;112102;1199;138277;-77
2021/09/05 03:37:33;;;;;;;0.40;0.30;;;;;;;13.17;58.69;101267.61;112145;1206;94825;-77
2021/09/05 03:40:00;;;;;;;0.40;0.30;;;;;;;13.19;58.79;101270.80;112027;1200;140905;-78
2021/09/05 03:42:27;;;;;;;0.40;0.20;;;;;;;13.19;58.88;101272.21;112107;1199;95127;-78
2021/09/05 03:44:53;;;;;;;0.40;0.20;;;;;;;13.17;58.74;101274.77;112207;1200;94834;-77
2021/09/05 03:47:20;;;;;;;0.40;0.30;;;;;;;13.12;58.83;101271.48;112104;1199;142262;-78
2021/09/05 03:49:46;;;;;;;0.40;0.30;;;;;;;13.11;58.93;101273.85;112189;1199;94920;-78
2021/09/05 03:52:13;;;;;;;0.40;0.20;;;;;;;13.14;58.89;101279.10;112023;1206;139869;-77
2021/09/05 03:54:40;;;;;;;0.40;0.20;;;;;;;13.17;59.25;101280.63;112166;1200;94915;-78
2021/09/05 03:57:07;;;;;;;0.40;0.20;;;;;;;13.11;59.52;101282.39;112171;1200;95407;-78
2021/09/05 03:59:33;;;;;;;0.40;0.30;;;;;;;13.05;59.42;101287.86;112107;1200;139257;-78
2021/09/05 04:02:00;;;;;;;0.40;0.30;;;;;;;13.03;59.73;101285.96;112229;1200;95007;-80
2021/09/05 04:04:27;;;;;;;0.40;0.20;;;;;;;13.03;59.77;101291.13;112117;1199;139411;-80
2021/09/05 04:07:03;;;;;;;0.40;0.30;;;;;;;12.99;59.90;101292.30;112241;1200;95355;-79
2021/09/05 04:12:19;;;;;;;0.40;0.30;;;;;;;12.85;60.08;101302.20;112231;1200;95480;-80
2021/09/05 04:14:46;;;;;;;0.40;0.20;;;;;;;12.93;60.22;101304.70;112169;1200;95212;-79
2021/09/05 04:17:13;;;;;;;0.40;0.20;;;;;;;12.98;60.05;101309.59;112051;1200;138524;-80
2021/09/05 04:19:39;;;;;;;0.40;0.30;;;;;;;12.97;60.05;101311.55;112182;1200;95311;-79
2021/09/05 04:22:06;;;;;;;0.40;0.30;;;;;;;12.91;60.30;101311.36;112087;1199;138035;-80
2021/09/05 04:24:33;;;;;;;0.40;0.30;;;;;;;12.91;60.13;101321.85;112128;1200;95092;-78
2021/09/05 04:26:59;;;;;;;0.40;0.30;;;;;;;12.97;60.08;101321.94;112178;1206;94837;-78
2021/09/05 04:29:26;;;;;;;0.40;0.20;;;;;;;12.99;60.04;101324.19;112027;1200;141835;-78
2021/09/05 04:31:53;;;;;;;0.40;0.20;;;;;;;12.95;60.18;101324.45;112191;1206;95465;-78
2021/09/05 04:34:19;;;;;;;0.40;0.30;;;;;;;12.94;60.31;101325.91;112029;1199;140677;-79
2021/09/05 04:36:46;;;;;;;0.40;0.20;;;;;;;12.94;60.44;101329.11;112139;1206;94841;-78
2021/09/05 04:39:13;;;;;;;0.40;0.20;;;;;;;12.96;60.33;101332.46;112056;1199;109176;-78
2021/09/05 04:41:39;;;;;;;0.40;0.30;;;;;;;12.99;60.27;101335.42;112038;1199;139588;-78
2021/09/05 04:44:06;;;;;;;0.40;0.30;;;;;;;12.95;60.35;101336.75;112076;1200;94847;-79
2021/09/05 04:46:32;;;;;;;0.40;0.30;;;;;;;12.97;60.34;101335.11;112066;1201;139867;-78
2021/09/05 04:48:59;;;;;;;0.40;0.20;;;;;;;13.04;60.44;101342.27;112182;1199;95459;-78
2021/09/05 04:51:26;;;;;;;0.40;0.20;;;;;;;13.02;60.39;101343.91;112106;1199;109290;-77
2021/09/05 04:53:52;;;;;;;0.40;0.30;;;;;;;13.05;60.41;101343.31;111998;1200;138234;-78
2021/09/05 04:56:19;;;;;;;0.40;0.30;;;;;;;13.07;60.46;101344.88;112180;1199;95435;-78
2021/09/05 04:58:46;;;;;;;0.40;0.20;;;;;;;13.10;60.63;101348.92;112025;1200;141066;-79
2021/09/05 05:01:13;;;;;;;0.40;0.20;;;;;;;13.20;60.28;101349.59;112179;1199;95043;-78
2021/09/05 05:03:40;;;;;;;0.40;0.30;;;;;;;13.30;60.31;101351.53;112078;1200;139748;-79
2021/09/05 05:06:26;;;;;;;0.40;0.20;;;;;;;13.38;59.83;101351.53;112302;1199;111564;-79
2021/09/05 05:08:53;;;;;;;0.40;0.20;;;;;;;13.39;59.63;101357.59;112197;1199;94974;-82
2021/09/05 05:11:19;;;;;;;0.40;0.20;;;;;;;13.50;59.49;101359.83;112211;1199;137953;-82
2021/09/05 05:13:46;;;;;;;0.40;0.20;;;;;;;13.42;59.59;101360.73;112255;1200;94843;-80
2021/09/05 05:16:13;;;;;;;0.40;0.20;;;;;;;13.40;59.66;101367.90;112277;1199;139321;-80
2021/09/05 05:18:41;;;;;;;0.40;0.20;;;;;;;13.40;59.63;101367.02;112211;1206;110890;-80
2021/09/05 05:21:09;;;;;;;0.40;0.20;;;;;;;13.42;59.84;101367.70;112253;1206;94820;-79
2021/09/05 05:23:36;;;;;;;0.40;0.20;;;;;;;13.48;59.34;101372.01;112057;1199;140151;-79
2021/09/05 05:26:03;;;;;;;0.40;0.20;;;;;;;13.42;59.26;101370.02;112210;1199;94908;-80
2021/09/05 05:28:29;;;;;;;0.40;0.20;;;;;;;13.48;59.19;101371.30;112058;1199;138496;-80
2021/09/05 05:30:56;;;;;;;0.40;0.20;;;;;;;13.34;59.39;101376.05;112217;1199;94823;-79
2021/09/05 05:33:22;;;;;;;0.40;0.20;;;;;;;13.30;59.37;101377.38;112233;1199;94911;-78
2021/09/05 05:35:49;;;;;;;0.40;0.20;;;;;;;13.38;59.27;101377.58;112248;1206;139771;-80
2021/09/05 05:38:16;;;;;;;0.40;0.20;;;;;;;13.46;59.38;101377.05;112168;1199;108008;-78
2021/09/05 05:40:42;;;;;;;0.40;0.20;;;;;;;13.40;59.33;101378.27;112092;1206;138210;-81
2021/09/05 05:43:09;;;;;;;0.40;0.20;;;;;;;13.41;59.72;101379.29;112152;1206;95148;-81
2021/09/05 05:45:36;;;;;;;0.40;0.20;;;;;;;13.51;59.62;101374.26;112117;1200;138785;-80
2021/09/05 05:48:02;;;;;;;0.40;0.20;;;;;;;13.38;59.32;101379.36;112186;1200;94852;-78
2021/09/05 05:50:29;;;;;;;0.40;0.20;;;;;;;13.24;59.82;101379.65;112179;1200;94967;-78
2021/09/05 05:52:56;;;;;;;0.40;0.20;;;;;;;13.19;60.02;101382.06;112138;1200;139303;-79
2021/09/05 05:55:22;;;;;;;0.40;0.20;;;;;;;13.11;59.99;101381.35;112296;1200;95430;-78
2021/09/05 05:57:49;;;;;;;0.40;0.20;;;;;;;13.10;60.51;101385.11;112149;1206;140384;-78
2021/09/05 06:00:16;;;;;;;0.40;0.20;;;;;;;13.20;60.28;101386.69;112236;1206;94960;-80
2021/09/05 06:02:42;;;;;;;0.40;0.20;;;;;;;13.30;60.21;101389.70;112247;1200;94917;-78
2021/09/05 06:05:10;;;;;;;0.40;0.20;;;;;;;13.46;59.82;101392.58;112027;1199;140061;-79
2021/09/05 06:07:36;;;;;;;0.40;0.20;;;;;;;13.59;59.47;101392.83;112150;1206;96078;-79
2021/09/05 06:10:03;;;;;;;0.40;0.20;;;;;;;13.66;59.36;101393.02;112115;1206;140531;-79
2021/09/05 06:12:30;;;;;;;0.40;0.20;;;;;;;13.76;58.75;101397.26;112208;1199;95298;-80
2021/09/05 06:14:58;;;;;;;0.40;0.20;;;;;;;13.75;58.70;101402.98;112162;1200;94907;-78
2021/09/05 06:17:24;;;;;;;0.40;0.20;;;;;;;13.81;58.98;101406.95;112061;1200;138451;-79
2021/09/05 06:19:51;;;;;;;0.40;0.20;;;;;;;13.92;58.09;101406.69;112224;1206;95096;-80
2021/09/05 06:22:18;;;;;;;0.40;0.20;;;;;;;13.98;58.22;101412.44;112195;1201;137077;-81
2021/09/05 06:24:44;;;;;;;0.40;0.20;;;;;;;13.96;58.10;101413.02;112219;1200;108622;-79
2021/09/05 06:27:11;;;;;;;0.40;0.20;;;;;;;13.91;57.70;101412.61;112206;1201;94946;-80
2021/09/05 06:29:37;;;;;;;0.40;0.20;;;;;;;13.88;57.53;101416.77;112095;1205;137884;-79
2021/09/05 06:32:04;;;;;;;0.40;0.20;;;;;;;13.96;57.23;101416.93;112163;1200;96051;-78
2021/09/05 06:34:31;;;;;;;0.40;0.20;;;;;;;14.08;56.84;101419.87;112079;1200;143509;-77
2021/09/05 06:36:57;;;;;;;0.40;0.20;;;;;;;14.15;57.01;101419.70;112117;1200;108816;-79
2021/09/05 06:39:24;;;;;;;0.40;0.20;;;;;;;14.15;56.51;101422.36;112137;1200;94815;-78
2021/09/05 06:41:50;;;;;;;0.40;0.20;;;;;;;14.07;55.87;101421.50;112064;1200;139581;-78
2021/09/05 06:44:17;;;;;;;0.40;0.20;;;;;;;14.07;56.20;101422.75;112214;1199;94893;-79
2021/09/05 06:46:44;;;;;;;0.40;0.20;;;;;;;14.11;56.34;101425.35;112095;1206;139644;-78
2021/09/05 06:49:10;;;;;;;0.40;0.20;;;;;;;14.08;56.47;101428.80;112166;1206;108832;-79
2021/09/05 06:51:37;;;;;;;0.40;0.20;;;;;;;14.15;56.09;101424.70;112074;1207;140769;-78
2021/09/05 06:54:03;;;;;;;0.40;0.20;;;;;;;14.26;55.45;101427.11;112148;1206;94849;-78
2021/09/05 06:56:30;;;;;;;0.40;0.20;;;;;;;14.35;55.64;101430.80;112200;1200;94896;-80
2021/09/05 06:58:57;;;;;;;0.40;0.20;;;;;;;14.41;55.43;101429.58;112165;1200;136515;-78
2021/09/05 07:01:23;;;;;;;0.40;0.20;;;;;;;14.51;55.26;101428.98;112153;1206;109494;-79
2021/09/05 07:03:50;;;;;;;0.40;0.20;;;;;;;14.62;55.03;101434.95;112029;1206;139698;-80
2021/09/05 07:06:17;;;;;;;0.40;0.20;;;;;;;14.69;54.60;101438.70;112163;1207;95287;-79
2021/09/05 07:08:43;;;;;;;0.40;0.20;;;;;;;14.76;54.26;101438.91;112156;1206;95077;-78
2021/09/05 07:11:10;;;;;;;0.40;0.20;;;;;;;14.84;53.40;101443.85;112070;1200;137941;-78
2021/09/05 07:13:37;;;;;;;0.40;0.20;;;;;;;14.77;52.34;101446.03;112178;1200;95403;-78
2021/09/05 07:16:03;;;;;;;0.40;0.20;;;;;;;14.68;52.94;101448.04;111985;1200;140679;-78
2021/09/05 07:18:30;;;;;;;0.40;0.20;;;;;;;14.64;53.09;101449.05;112106;1200;94897;-79
2021/09/05 07:20:57;;;;;;;0.40;0.20;;;;;;;14.69;53.22;101451.42;112106;1199;94807;-78
2021/09/05 07:23:24;;;;;;;0.40;0.20;;;;;;;14.76;53.47;101453.71;112017;1206;137914;-79
2021/09/05 07:25:50;;;;;;;0.40;0.20;;;;;;;14.79;52.58;101454.38;112084;1199;95370;-79
2021/09/05 07:28:17;;;;;;;0.40;0.20;;;;;;;14.82;53.35;101456.41;112062;1200;138677;-79
2021/09/05 07:30:43;;;;;;;0.40;0.20;;;;;;;14.95;52.57;101461.25;112053;1200;95326;-79
2021/09/05 07:33:10;;;;;;;0.40;0.20;;;;;;;15.08;52.14;101462.69;112047;1206;94838;-80
2021/09/05 07:35:36;;;;;;;0.40;0.20;;;;;;;15.18;50.47;101465.10;111954;1201;137671;-79
2021/09/05 07:38:03;;;;;;;0.40;0.20;;;;;;;15.29;49.90;101465.34;112088;1200;95409;-79
2021/09/05 07:40:30;;;;;;;0.40;0.20;;;;;;;15.38;49.82;101465.05;112028;1200;138762;-79
2021/09/05 07:42:57;;;;;;;0.40;0.20;;;;;;;15.50;49.71;101465.97;112169;1200;95261;-78
2021/09/05 07:45:23;;;;;;;0.40;0.20;;;;;;;15.50;47.76;101472.59;112093;1201;94964;-78
2021/09/05 07:47:50;;;;;;;0.40;0.20;;;;;;;15.43;46.73;101472.45;111986;1200;137549;-80
2021/09/05 07:50:17;;;;;;;0.40;0.20;;;;;;;15.42;47.48;101474.61;112162;1206;94820;-78
2021/09/05 07:52:43;;;;;;;0.40;0.10;;;;;;;15.44;46.85;101476.85;112112;1202;137891;-78
2021/09/05 07:55:10;;;;;;;0.40;0.20;;;;;;;15.48;47.07;101476.40;112192;1206;94926;-79
2021/09/05 07:57:37;;;;;;;0.40;0.20;;;;;;;15.54;45.26;101478.02;112112;1206;139367;-79
2021/09/05 08:00:04;;;;;;;0.40;0.20;;;;;;;15.63;46.43;101478.66;112181;1201;94881;-79
2021/09/05 08:02:31;;;;;;;0.40;0.20;;;;;;;15.73;46.21;101483.37;112418;1200;94919;-79
2021/09/05 08:04:58;;;;;;;0.40;0.20;;;;;;;15.84;46.35;101486.48;112031;1204;139609;-78
2021/09/05 08:07:25;;;;;;;0.40;0.20;;;;;;;15.90;44.80;101488.96;112148;1200;95305;-79
2021/09/05 08:09:51;;;;;;;0.40;0.20;;;;;;;15.96;44.18;101489.69;112094;1206;139629;-79
2021/09/05 08:12:28;;;;;;;0.40;0.20;;;;;;;16.05;43.58;101493.16;112111;1203;110092;-79
2021/09/05 08:14:55;;;;;;;0.40;0.20;;;;;;;16.14;43.25;101491.81;112211;1206;94909;-79
2021/09/05 08:17:21;;;;;;;0.40;0.20;;;;;;;16.24;43.13;101490.76;112064;1200;138342;-79
2021/09/05 08:19:50;;;;;;;0.40;0.20;;;;;;;16.38;42.37;101490.29;112238;1206;94806;-80
2021/09/05 08:22:18;;;;;;;0.40;0.20;;;;;;;16.46;42.57;101492.01;112126;1206;138388;-78
2021/09/05 08:24:45;;;;;;;0.40;0.10;;;;;;;16.54;41.82;101494.08;112716;1200;94828;-79
2021/09/05 08:27:11;;;;;;;0.40;0.10;;;;;;;16.58;42.14;101492.14;112252;1206;94954;-80
2021/09/05 08:29:38;;;;;;;0.40;0.20;;;;;;;16.63;42.48;101489.27;112190;1206;139933;-79
2021/09/05 08:32:07;;;;;;;0.40;0.20;;;;;;;16.72;41.57;101491.13;112242;1200;94871;-80
2021/09/05 08:34:34;;;;;;;0.40;0.10;;;;;;;16.81;42.54;101490.63;112049;1206;138056;-80
2021/09/05 08:37:01;;;;;;;0.40;0.10;;;;;;;16.98;42.00;101493.30;112161;1200;95412;-79
2021/09/05 08:39:28;;;;;;;0.40;0.10;;;;;;;17.05;41.53;101498.63;112310;1207;94917;-78
2021/09/05 08:41:56;;;;;;;0.40;0.20;;;;;;;17.10;40.92;101502.74;112083;1207;139357;-79
2021/09/05 08:44:24;;;;;;;0.40;0.10;;;;;;;17.18;42.28;101503.87;112128;1206;94850;-80
2021/09/05 08:46:52;;;;;;;0.40;0.10;;;;;;;17.30;41.58;101505.45;112061;1200;138188;-79
2021/09/05 08:49:26;;;;;;;0.40;0.10;;;;;;;17.41;41.66;101503.08;112545;1207;94947;-79
2021/09/05 08:51:55;;;;;;;0.40;0.10;;;;;;;17.49;41.10;101504.58;112220;1207;137707;-79
2021/09/05 08:54:22;;;;;;;0.40;0.10;;;;;;;17.50;41.82;101501.28;112788;1199;95336;-81
2021/09/05 08:56:52;;;;;;;0.40;0.10;;;;;;;17.53;41.18;101503.15;112375;1202;95151;-78
2021/09/05 08:59:19;;;;;;;0.40;0.10;;;;;;;17.59;39.77;101502.42;112113;1203;138568;-79
2021/09/05 09:01:54;;;;;;;0.40;0.10;;;;;;;17.62;39.90;101504.78;112255;1202;94840;-79
2021/09/05 09:04:21;;;;;;;0.40;0.10;;;;;;;17.68;39.32;101504.40;112096;1201;139975;-81
2021/09/05 09:06:48;;;;;;;0.40;0.10;;;;;;;17.73;40.04;101505.98;112318;1202;95552;-80
2021/09/05 09:09:15;;;;;;;0.40;0.10;;;;;;;17.84;39.98;101506.63;112143;1201;95027;-79
2021/09/05 09:11:53;;;;;;;0.40;0.20;;;;;;;18.09;39.69;101504.08;112092;1207;140373;-80
2021/09/05 09:14:24;;;;;;;0.40;0.10;;;;;;;19.55;37.29;101494.38;112071;1201;95281;-81
2021/09/05 09:16:51;;;;;;;0.40;0.10;;;;;;;21.55;33.18;101498.11;112070;1201;137767;-81
2021/09/05 09:19:23;;;;;;;0.40;0.10;;;;;;;23.33;30.26;101494.34;111935;1201;108614;-81
2021/09/05 09:21:49;;;;;;;0.40;0.10;;;;;;;24.50;27.74;101494.80;112277;1200;140648;-81
2021/09/05 09:24:19;;;;;;;0.40;0.00;;;;;;;25.69;27.71;101492.84;112070;1207;94882;-80
2021/09/05 09:27:15;;;;;;;0.40;0.10;;;;;;;26.52;24.46;101496.19;112253;1203;94906;-83
2021/09/05 09:29:42;;;;;;;0.40;0.00;;;;;;;27.21;25.04;101490.91;112115;1200;139592;-83
2021/09/05 09:32:16;;;;;;;0.40;0.00;;;;;;;27.14;25.11;101487.11;112213;1202;94857;-84
2021/09/05 09:34:47;;;;;;;0.40;0.00;;;;;;;27.12;24.33;101485.27;112129;1201;138991;-81
2021/09/05 09:37:20;;;;;;;0.40;0.00;;;;;;;27.28;24.30;101485.81;112344;1206;94799;-81
2021/09/05 09:39:52;;;;;;;0.40;0.00;;;;;;;27.51;24.60;101481.41;112113;1207;137981;-82
2021/09/05 09:42:48;;;;;;;0.40;0.00;;;;;;;28.19;23.98;101482.25;112416;1199;109949;-84
2021/09/05 09:45:17;;;;;;;0.40;0.00;;;;;;;29.27;22.97;101475.08;112144;1206;96451;-82
2021/09/05 09:47:47;;;;;;;0.40;0.00;;;;;;;30.18;22.15;101476.45;112121;1199;139788;-81
2021/09/05 09:50:15;;;;;;;0.40;0.00;;;;;;;31.28;20.87;101474.70;112189;1203;100461;-81
2021/09/05 09:52:45;;;;;;;0.40;0.00;;;;;;;32.25;19.16;101478.66;112124;1201;140461;-81
2021/09/05 09:55:12;;;;;;;0.40;0.00;;;;;;;32.92;18.73;101482.01;112092;1202;96090;-81
2021/09/05 09:57:40;;;;;;;0.40;0.00;;;;;;;33.50;18.51;101482.38;111876;1206;138101;-82
2021/09/05 10:00:07;;;;;;;0.40;0.00;;;;;;;33.85;17.65;101477.67;112178;1201;94837;-78
2021/09/05 10:02:41;;;;;;;0.40;0.00;;;;;;;33.77;17.07;101476.88;112230;1200;101506;-81
2021/09/05 10:05:12;;;;;;;0.40;0.00;;;;;;;33.69;17.31;101473.30;111953;1201;139552;-83
2021/09/05 10:07:39;;;;;;;0.40;0.00;;;;;;;34.25;17.67;101473.90;112072;1202;94940;-81
2021/09/05 10:10:07;;;;;;;0.40;0.00;;;;;;;34.46;17.74;101470.82;112063;1198;139585;-81
2021/09/05 10:12:34;;;;;;;0.40;0.00;;;;;;;35.02;16.75;101467.00;112275;1201;101174;-81
2021/09/05 10:15:00;;;;;;;0.40;0.00;;;;;;;35.26;16.36;101465.74;112302;1199;94852;-82
2021/09/05 10:17:28;;;;;;;0.40;0.00;;;;;;;35.54;15.89;101468.79;111971;1208;138231;-80
2021/09/05 10:19:55;;;;;;;0.40;0.00;;;;;;;35.66;15.39;101466.42;112265;1199;95444;-82
2021/09/05 10:22:30;;;;;;;0.40;0.00;;;;;;;35.78;14.53;101460.83;112220;1200;138704;-80
2021/09/05 10:25:00;;;;;;;0.40;0.00;;;;;;;35.09;14.87;101461.72;112365;1201;94898;-81
2021/09/05 10:27:34;;;;;;;0.40;0.00;;;;;;;33.61;16.77;101469.65;112240;1199;94839;-83
2021/09/05 10:30:10;;;;;;;0.40;0.00;;;;;;;32.25;18.00;101470.45;111741;1203;139402;-83
2021/09/05 10:32:50;;;;;;;0.40;0.00;;;;;;;31.04;19.06;101474.63;112132;1201;101250;-84
2021/09/05 10:35:29;;;;;;;0.40;0.00;;;;;;;30.59;19.36;101474.05;112003;1201;138894;-84
2021/09/05 10:38:08;;;;;;;0.40;0.00;;;;;;;31.23;19.29;101472.04;112155;1208;95343;-82
2021/09/05 10:40:45;;;;;;;0.40;0.00;;;;;;;32.95;18.19;101465.94;111997;1200;139809;-80
2021/09/05 10:43:12;;;;;;;0.40;0.00;;;;;;;34.10;17.15;101471.10;112186;1199;110761;-78
2021/09/05 11:16:39;;;;;;;0.40;0.00;;;;;;;22.57;28.99;101484.23;111165;1214;634733;-78
2021/09/05 11:19:06;;;;;;;0.40;0.00;;;;;;;22.32;29.65;101487.89;112020;1202;141235;-78
2021/09/05 11:21:32;;;;;;;0.40;0.00;;;;;;;22.15;30.04;101487.58;112186;1204;94147;-79
2021/09/05 11:24:00;;;;;;;0.40;0.00;;;;;;;21.87;30.21;101492.60;112134;1202;93886;-77
2021/09/05 11:26:27;;;;;;;0.40;0.10;;;;;;;21.62;30.69;101487.30;111897;1202;136738;-78
2021/09/05 11:28:54;;;;;;;0.40;0.10;;;;;;;21.42;30.40;101482.55;112195;1204;93919;-79
2021/09/05 11:31:20;;;;;;;0.40;0.10;;;;;;;21.46;30.98;101489.21;111973;1202;136413;-77
2021/09/05 11:33:47;;;;;;;0.40;0.00;;;;;;;21.42;30.75;101490.52;112053;1209;93987;-77
2021/09/05 11:36:14;;;;;;;0.40;0.10;;;;;;;21.22;31.88;101489.46;112157;1204;136815;-79
2021/09/05 11:38:40;;;;;;;0.40;0.10;;;;;;;21.12;32.61;101493.21;112253;1202;108473;-80
2021/09/05 11:41:07;;;;;;;0.40;0.00;;;;;;;20.85;31.88;101497.31;112102;1204;93007;-78
2021/09/05 11:43:35;;;;;;;0.40;0.00;;;;;;;20.41;32.10;101498.60;112003;1209;138503;-77
2021/09/05 11:46:09;;;;;;;0.40;0.10;;;;;;;19.96;31.46;101499.38;112113;1201;93968;-79
2021/09/05 11:48:36;;;;;;;0.40;0.10;;;;;;;19.54;32.20;101497.17;111944;1203;137703;-78
2021/09/05 11:51:03;;;;;;;0.40;0.10;;;;;;;19.38;33.36;101499.49;112159;1202;93909;-76